Time;durP1;ratioP1;P1;durP2;ratioP2;P2;SDS_P1;SDS_P2;PMS_P1;PMS_P2;Temp;Humidity;BMP_temperature;BMP_pressure;BME280_temperature;BME280_humidity;BME280_pressure;Samples;Min_cycle;Max_cycle;Signal;HPM_P1;HPM_P2
2021/05/24 00:00:20;;;;;;;;;1.00;1.00;;;;;14.11;51.64;100560.50;5064876;28;47728;-46
2021/05/24 00:02:46;;;;;;;;;0.00;0.00;;;;;14.13;51.50;100558.69;5071458;27;45494;-46
2021/05/24 00:05:15;;;;;;;;;1.00;1.00;;;;;14.17;51.34;100554.19;5083199;28;45365;-45
2021/05/24 00:07:41;;;;;;;;;1.00;1.00;;;;;14.15;51.54;100546.31;5082825;28;45247;-42
2021/05/24 00:10:09;;;;;;;;;1.25;1.00;;;;;14.14;51.68;100541.94;5082676;28;45189;-42
2021/05/24 00:12:36;;;;;;;;;1.00;1.00;;;;;14.13;51.78;100537.56;5064635;28;45418;-44
2021/05/24 00:15:04;;;;;;;;;1.00;1.00;;;;;14.08;51.87;100536.84;5082946;28;45473;-44
2021/05/24 00:17:30;;;;;;;;;2.00;2.00;;;;;14.12;51.94;100534.06;5069132;28;45526;-42
2021/05/24 00:19:56;;;;;;;;;2.25;1.00;;;;;14.16;51.27;100533.94;5054640;28;46628;-46
2021/05/24 00:22:21;;;;;;;;;1.00;1.00;;;;;14.03;51.91;100536.13;5082638;27;45230;-44
2021/05/24 00:24:46;;;;;;;;;1.00;1.00;;;;;14.05;52.07;100535.16;5082737;28;45362;-43
2021/05/24 00:27:13;;;;;;;;;1.00;1.00;;;;;14.09;51.99;100520.09;5071584;28;45975;-43
2021/05/24 00:29:38;;;;;;;;;1.75;1.75;;;;;14.07;52.09;100519.25;5076363;27;46402;-42
2021/05/24 00:32:04;;;;;;;;;1.00;1.00;;;;;14.00;52.31;100515.97;5082597;28;45504;-42
2021/05/24 00:34:30;;;;;;;;;0.00;0.00;;;;;13.91;52.62;100506.56;5082798;28;45462;-43
2021/05/24 00:36:55;;;;;;;;;1.00;0.00;;;;;13.97;52.17;100527.50;5082536;28;45316;-44
2021/05/24 00:39:21;;;;;;;;;1.00;1.00;;;;;13.93;51.97;100512.63;5060716;28;47856;-46
2021/05/24 00:41:47;;;;;;;;;1.00;0.50;;;;;13.95;52.30;100509.97;5079826;28;45277;-45
2021/05/24 00:44:13;;;;;;;;;2.00;2.00;;;;;13.89;52.08;100503.09;5082554;28;45320;-44
2021/05/24 00:46:38;;;;;;;;;0.75;0.75;;;;;13.80;52.60;100500.75;5064299;28;45264;-45
2021/05/24 00:49:07;;;;;;;;;0.75;0.75;;;;;13.84;52.25;100494.44;5082262;28;46220;-46
2021/05/24 00:51:34;;;;;;;;;1.75;1.75;;;;;13.75;52.39;100489.47;5078176;28;45458;-44
2021/05/24 00:54:00;;;;;;;;;1.00;1.00;;;;;13.75;52.44;100500.88;5073083;28;45433;-45
2021/05/24 00:56:25;;;;;;;;;1.00;1.00;;;;;13.69;52.61;100479.09;5082355;28;45324;-46
2021/05/24 00:58:52;;;;;;;;;1.00;1.00;;;;;13.71;52.38;100469.31;5079118;28;45419;-45
2021/05/24 01:01:17;;;;;;;;;2.25;1.00;;;;;13.77;52.26;100466.50;5077482;27;45450;-46
2021/05/24 01:03:43;;;;;;;;;1.75;0.00;;;;;13.77;52.82;100466.50;5079572;28;45245;-44
2021/05/24 01:06:08;;;;;;;;;1.75;0.75;;;;;13.82;52.11;100460.16;5081988;28;45327;-44
2021/05/24 01:08:33;;;;;;;;;1.00;1.00;;;;;13.78;52.85;100462.94;5082057;28;45219;-44
2021/05/24 01:10:59;;;;;;;;;1.00;1.00;;;;;13.78;52.46;100452.38;5082337;28;45240;-44
2021/05/24 01:13:24;;;;;;;;;1.50;1.50;;;;;13.82;52.37;100446.97;5064010;28;45303;-46
2021/05/24 01:15:50;;;;;;;;;0.00;0.00;;;;;13.80;52.34;100437.38;5063908;28;45586;-47
2021/05/24 01:18:15;;;;;;;;;0.50;0.50;;;;;13.82;52.03;100440.78;5081948;28;46318;-46
2021/05/24 01:20:41;;;;;;;;;1.75;0.75;;;;;13.77;52.16;100440.97;5080731;28;45286;-43
2021/05/24 01:25:38;;;;;;;;;0.00;0.00;;;;;13.84;52.06;100435.50;5081896;28;45360;-45
2021/05/24 01:28:06;;;;;;;;;1.50;0.50;;;;;13.80;52.01;100424.16;5082188;28;46458;-42
2021/05/24 01:30:31;;;;;;;;;0.00;0.00;;;;;13.69;52.25;100432.41;5081923;28;45286;-43
2021/05/24 01:32:58;;;;;;;;;3.00;1.00;;;;;13.68;52.28;100427.19;5063926;28;45252;-47
2021/05/24 01:35:24;;;;;;;;;4.00;0.00;;;;;13.59;52.24;100412.50;5081906;28;45407;-44
2021/05/24 01:37:49;;;;;;;;;1.50;1.50;;;;;13.61;52.24;100413.28;5080354;28;46045;-43
2021/05/24 01:40:15;;;;;;;;;1.00;0.50;;;;;13.61;52.25;100421.22;5061274;28;45382;-44
2021/05/24 01:42:41;;;;;;;;;1.00;1.00;;;;;13.61;52.33;100410.66;5061631;28;45340;-44
2021/05/24 01:45:07;;;;;;;;;1.75;1.75;;;;;13.61;52.20;100410.66;5061477;28;45355;-44
2021/05/24 01:47:32;;;;;;;;;1.00;1.00;;;;;13.58;52.44;100405.50;5060095;28;48284;-45
2021/05/24 01:49:58;;;;;;;;;1.00;1.00;;;;;13.60;52.45;100403.69;5061255;28;45269;-45
2021/05/24 01:52:23;;;;;;;;;1.00;1.00;;;;;13.60;52.17;100386.03;5064740;28;45403;-44
2021/05/24 01:54:48;;;;;;;;;1.75;1.00;;;;;13.58;52.87;100403.69;5080241;28;45565;-44
2021/05/24 01:57:14;;;;;;;;;3.00;1.75;;;;;13.59;52.47;100399.31;5063251;28;47183;-45
2021/05/24 01:59:40;;;;;;;;;0.75;0.00;;;;;13.60;52.32;100401.88;5063323;28;45253;-45
2021/05/24 02:02:06;;;;;;;;;0.25;0.25;;;;;13.62;52.13;100413.28;5080190;28;45286;-44
2021/05/24 02:04:32;;;;;;;;;0.25;0.25;;;;;13.65;52.02;100394.69;5065140;28;45438;-44
2021/05/24 02:06:58;;;;;;;;;1.00;0.50;;;;;13.60;52.83;100393.97;5065925;28;46049;-43
2021/05/24 02:09:24;;;;;;;;;1.75;1.00;;;;;13.53;51.91;100389.78;5060939;28;45298;-44
2021/05/24 02:11:50;;;;;;;;;2.00;0.00;;;;;13.53;52.31;100396.84;5061129;28;45520;-46
2021/05/24 02:14:15;;;;;;;;;0.50;0.50;;;;;13.49;52.07;100407.50;5060982;28;45319;-44
2021/05/24 02:16:47;;;;;;;;;0.25;0.00;;;;;13.47;52.27;100384.69;5060875;28;46045;-43
2021/05/24 02:19:15;;;;;;;;;1.00;1.00;;;;;13.37;52.85;100384.16;5060059;28;45439;-45
2021/05/24 02:21:41;;;;;;;;;0.00;0.00;;;;;13.42;52.92;100381.34;5059763;28;45355;-43
2021/05/24 02:24:08;;;;;;;;;2.25;0.00;;;;;13.45;53.57;100386.53;5060596;28;45320;-44
2021/05/24 02:26:35;;;;;;;;;1.00;0.75;;;;;13.45;53.75;100391.81;5060675;28;46359;-43
2021/05/24 02:29:01;;;;;;;;;1.00;1.00;;;;;13.37;53.77;100386.78;5060744;28;45200;-43
2021/05/24 02:31:27;;;;;;;;;1.00;1.00;;;;;13.29;54.36;100381.69;5060991;28;45256;-45
2021/05/24 02:33:52;;;;;;;;;1.00;1.00;;;;;13.19;55.30;100382.91;5059287;28;45488;-45
2021/05/24 02:36:21;;;;;;;;;2.00;0.75;;;;;13.17;54.42;100396.16;5059455;28;48254;-42
2021/05/24 02:38:46;;;;;;;;;1.75;0.75;;;;;13.01;55.54;100377.28;5060369;28;45323;-44
2021/05/24 02:41:12;;;;;;;;;1.00;1.00;;;;;12.90;57.25;100381.16;5060769;28;45494;-46
2021/05/24 02:43:37;;;;;;;;;0.00;0.00;;;;;12.56;58.45;100361.03;5060436;28;45511;-45
2021/05/24 02:46:02;;;;;;;;;2.50;0.50;;;;;12.39;59.40;100367.66;5060557;28;45321;-46
2021/05/24 02:48:28;;;;;;;;;1.00;1.00;;;;;12.26;61.07;100367.09;5060631;28;45397;-43
2021/05/24 02:50:53;;;;;;;;;1.00;1.00;;;;;12.12;64.29;100363.97;5060698;28;45498;-45
2021/05/24 02:53:19;;;;;;;;;2.00;1.00;;;;;12.06;66.84;100364.16;5067156;28;45233;-44
2021/05/24 02:55:44;;;;;;;;;0.00;0.00;;;;;11.91;64.99;100366.25;5068064;28;45971;-43
2021/05/24 02:58:09;;;;;;;;;0.00;0.00;;;;;11.82;63.02;100366.47;5079384;28;45235;-45
2021/05/24 03:00:35;;;;;;;;;1.00;0.00;;;;;11.81;62.28;100356.84;5080891;28;45169;-42
2021/05/24 03:03:00;;;;;;;;;1.00;1.00;;;;;11.76;66.43;100358.72;5062312;28;45248;-43
2021/05/24 03:05:26;;;;;;;;;0.75;0.75;;;;;11.65;66.49;100348.47;5080659;28;46260;-45
2021/05/24 03:07:52;;;;;;;;;0.00;0.00;;;;;11.60;72.60;100345.09;5062181;28;45932;-45
2021/05/24 03:10:21;;;;;;;;;2.75;1.00;;;;;11.65;72.33;100351.97;5080632;28;45227;-43
2021/05/24 03:12:47;;;;;;;;;1.00;1.00;;;;;11.57;71.59;100348.66;5080146;28;45498;-43
2021/05/24 03:15:14;;;;;;;;;1.00;1.00;;;;;11.50;70.61;100333.94;5080328;28;46078;-43
2021/05/24 03:17:40;;;;;;;;;2.00;1.25;;;;;11.42;73.57;100331.50;5080151;28;45251;-43
2021/05/24 03:20:08;;;;;;;;;1.75;1.75;;;;;11.52;72.88;100351.41;5080434;28;45215;-44
2021/05/24 03:22:33;;;;;;;;;0.50;0.50;;;;;11.48;73.10;100347.13;5080512;27;45309;-44
2021/05/24 03:24:59;;;;;;;;;1.50;1.50;;;;;11.51;73.83;100354.09;5079957;28;45316;-42
2021/05/24 03:27:25;;;;;;;;;1.00;1.00;;;;;11.47;73.39;100350.66;5080172;28;45338;-47
2021/05/24 03:29:50;;;;;;;;;3.00;1.75;;;;;11.50;69.04;100350.56;5061841;28;45315;-44
2021/05/24 03:32:15;;;;;;;;;1.00;1.00;;;;;11.49;68.58;100342.72;5061953;28;45355;-43
2021/05/24 03:34:41;;;;;;;;;0.00;0.00;;;;;11.51;67.58;100351.47;5062047;28;46376;-44
2021/05/24 03:37:06;;;;;;;;;1.00;1.00;;;;;11.53;67.52;100341.75;5080049;28;45353;-44
2021/05/24 03:39:32;;;;;;;;;2.00;1.00;;;;;11.47;67.85;100341.88;5080085;28;45422;-43
2021/05/24 03:41:57;;;;;;;;;1.00;1.00;;;;;11.42;67.91;100347.28;5079906;27;45328;-47
2021/05/24 03:44:23;;;;;;;;;0.25;0.25;;;;;11.38;68.57;100346.47;5080022;28;45423;-45
2021/05/24 03:47:14;;;;;;;;;1.50;0.75;;;;;-146.61;100.00;59365.63;4475075;28;15850443;-46
2021/05/24 03:49:45;;;;;;;;;1.50;1.50;;;;;11.36;87.75;100353.53;4926071;28;3179943;-46
2021/05/24 03:52:11;;;;;;;;;1.00;1.00;;;;;11.32;88.55;100349.25;5086215;27;62701;-46
2021/05/24 03:54:36;;;;;;;;;1.00;1.00;;;;;11.38;89.43;100341.22;5077747;28;50424;-44
2021/05/24 03:57:01;;;;;;;;;1.25;1.25;;;;;11.31;89.70;100354.56;5070201;28;45390;-43
2021/05/24 03:59:27;;;;;;;;;1.25;1.25;;;;;11.34;89.93;100344.81;5062067;28;46148;-46
2021/05/24 04:01:52;;;;;;;;;2.50;2.00;;;;;11.40;89.94;100348.22;5070592;28;45283;-43
2021/05/24 04:04:18;;;;;;;;;1.00;1.00;;;;;11.34;89.74;100355.31;5072532;28;44586;-44
2021/05/24 04:06:47;;;;;;;;;1.25;1.25;;;;;11.42;89.69;100357.81;5074013;28;44750;-46
2021/05/24 04:09:13;;;;;;;;;1.00;1.00;;;;;11.36;89.55;100343.00;5071135;28;45401;-43
2021/05/24 04:11:38;;;;;;;;;1.00;1.00;;;;;11.38;89.77;100354.38;5069652;28;44670;-43
2021/05/24 04:14:03;;;;;;;;;1.25;1.25;;;;;11.38;89.85;100351.75;5047509;28;45352;-46
2021/05/24 04:16:29;;;;;;;;;1.00;1.00;;;;;11.33;89.84;100342.22;5070656;28;43704;-46
2021/05/24 04:18:54;;;;;;;;;1.00;1.00;;;;;11.28;89.90;100350.25;5063039;28;46127;-46
2021/05/24 04:21:20;;;;;;;;;2.00;1.00;;;;;11.35;89.89;100358.84;5059452;28;45460;-44
2021/05/24 04:23:46;;;;;;;;;1.25;1.25;;;;;11.31;89.68;100355.41;5059070;28;45300;-44
2021/05/24 04:26:13;;;;;;;;;2.00;2.00;;;;;11.31;90.53;100349.31;5059334;28;45272;-45
2021/05/24 04:28:38;;;;;;;;;2.25;1.00;;;;;11.25;91.82;100350.28;5058930;28;46525;-44
2021/05/24 04:31:04;;;;;;;;;2.25;1.00;;;;;11.27;92.35;100345.88;5059422;28;45304;-44
2021/05/24 04:33:29;;;;;;;;;2.25;1.25;;;;;11.37;92.92;100352.63;5041040;28;45354;-45
2021/05/24 04:35:57;;;;;;;;;1.00;1.00;;;;;11.37;92.64;100355.28;5059401;28;45393;-46
2021/05/24 04:38:23;;;;;;;;;2.00;2.00;;;;;11.37;90.98;100352.63;5058806;28;46903;-44
2021/05/24 04:40:48;;;;;;;;;3.00;1.75;;;;;11.42;90.09;100349.03;5059473;28;45319;-45
2021/05/24 04:43:15;;;;;;;;;1.25;1.25;;;;;11.44;89.95;100341.97;5062494;28;45545;-48
2021/05/24 04:45:40;;;;;;;;;2.00;2.00;;;;;11.43;89.56;100359.50;5062532;28;45407;-47
2021/05/24 04:48:06;;;;;;;;;2.00;1.75;;;;;11.45;89.33;100352.44;5062167;28;46057;-44
2021/05/24 04:50:31;;;;;;;;;1.75;1.00;;;;;11.44;88.46;100363.88;5062393;28;45253;-45
2021/05/24 04:52:56;;;;;;;;;1.00;1.00;;;;;11.48;88.84;100360.28;5069048;28;45413;-48
2021/05/24 04:55:22;;;;;;;;;1.00;1.00;;;;;11.49;87.94;100376.94;5082582;27;45520;-45
2021/05/24 04:57:47;;;;;;;;;1.50;1.00;;;;;11.37;85.50;100362.28;5066122;28;45248;-46
2021/05/24 05:00:14;;;;;;;;;1.00;1.00;;;;;11.37;84.91;100364.91;5044221;28;45248;-45
2021/05/24 05:02:40;;;;;;;;;1.25;1.25;;;;;11.38;83.96;100362.28;5062266;28;45454;-45
2021/05/24 05:05:07;;;;;;;;;1.00;1.00;;;;;11.41;82.94;100395.53;5062191;28;45312;-45
2021/05/24 05:07:33;;;;;;;;;1.25;1.00;;;;;11.43;82.38;100384.97;5061791;28;45392;-46
2021/05/24 05:09:59;;;;;;;;;1.75;1.75;;;;;11.41;82.30;100371.84;5061812;28;45403;-45
2021/05/24 05:12:25;;;;;;;;;1.00;1.00;;;;;11.32;81.96;100351.88;5044102;28;45261;-45
2021/05/24 05:14:51;;;;;;;;;1.00;1.00;;;;;11.46;81.30;100369.97;5062049;28;45217;-44
2021/05/24 05:17:16;;;;;;;;;1.00;1.00;;;;;11.46;80.82;100383.13;5061630;28;47076;-45
2021/05/24 05:19:42;;;;;;;;;1.25;1.25;;;;;11.49;81.79;100379.56;5060741;28;45349;-46
2021/05/24 05:22:07;;;;;;;;;2.00;1.00;;;;;11.45;81.23;100378.75;5060505;28;45459;-47
2021/05/24 05:24:33;;;;;;;;;2.50;1.50;;;;;11.45;80.82;100378.75;5061819;28;45540;-43
2021/05/24 05:26:58;;;;;;;;;0.00;0.00;;;;;11.57;81.18;100368.84;5061579;28;46059;-44
2021/05/24 05:29:24;;;;;;;;;1.00;1.00;;;;;11.58;80.73;100362.69;5061852;28;45346;-47
2021/05/24 05:31:49;;;;;;;;;2.00;2.00;;;;;11.65;80.57;100356.38;5060398;28;45259;-47
2021/05/24 05:34:14;;;;;;;;;1.00;1.00;;;;;11.74;79.51;100347.38;5061875;28;45364;-45
2021/05/24 05:36:40;;;;;;;;;1.00;1.00;;;;;11.80;78.99;100352.50;5061590;28;46218;-47
2021/05/24 05:39:06;;;;;;;;;1.00;1.00;;;;;11.64;78.98;100326.53;5061516;28;45263;-49
2021/05/24 05:41:31;;;;;;;;;2.00;1.00;;;;;11.76;78.20;100356.09;5061916;28;45258;-49
2021/05/24 05:43:57;;;;;;;;;1.00;1.00;;;;;11.81;77.88;100355.09;5061293;28;45357;-43
2021/05/24 05:46:22;;;;;;;;;1.00;0.00;;;;;11.84;77.82;100360.25;5061552;28;46141;-43
2021/05/24 05:48:47;;;;;;;;;1.75;1.00;;;;;11.83;77.10;100355.03;5061434;28;45316;-46
2021/05/24 05:51:13;;;;;;;;;1.00;0.75;;;;;11.79;76.24;100364.78;5061476;28;45461;-43
2021/05/24 05:53:38;;;;;;;;;0.00;0.00;;;;;11.83;76.70;100361.16;5072740;28;45331;-43
2021/05/24 05:56:04;;;;;;;;;1.00;1.00;;;;;11.82;75.82;100361.22;5079634;27;46251;-45
2021/05/24 05:58:30;;;;;;;;;1.00;1.00;;;;;11.86;75.57;100370.75;5061372;28;45592;-45
2021/05/24 06:00:55;;;;;;;;;1.00;1.00;;;;;11.87;74.40;100364.59;5061143;28;45230;-44
2021/05/24 06:03:20;;;;;;;;;1.00;1.00;;;;;11.93;73.91;100368.84;5061257;28;45246;-43
2021/05/24 06:05:46;;;;;;;;;2.50;2.50;;;;;11.91;73.76;100363.63;5061040;28;45422;-45
2021/05/24 06:08:11;;;;;;;;;1.00;1.00;;;;;11.90;72.80;100368.91;5061020;28;45264;-43
2021/05/24 06:10:37;;;;;;;;;2.00;2.00;;;;;11.91;72.65;100368.88;5060934;28;45358;-45
2021/05/24 06:13:02;;;;;;;;;1.00;1.00;;;;;11.97;72.50;100381.91;5060970;28;45236;-43
2021/05/24 06:15:28;;;;;;;;;0.75;0.75;;;;;11.95;72.40;100378.44;5061013;28;46112;-44
2021/05/24 06:17:54;;;;;;;;;0.00;0.00;;;;;11.95;72.30;100375.78;5060836;28;45458;-45
2021/05/24 06:20:19;;;;;;;;;2.75;1.75;;;;;12.00;72.31;100371.31;5060919;28;45331;-44
2021/05/24 06:22:45;;;;;;;;;1.50;0.00;;;;;12.04;71.84;100390.53;5060807;28;45334;-43
2021/05/24 06:25:11;;;;;;;;;4.25;2.00;;;;;12.07;71.55;100386.94;5060717;28;46031;-43
2021/05/24 06:27:37;;;;;;;;;3.25;3.25;;;;;12.15;71.43;100400.75;5060669;28;45401;-42
2021/05/24 06:30:05;;;;;;;;;4.75;4.75;;;;;12.13;71.48;100387.66;5060691;28;45339;-45
2021/05/24 06:32:30;;;;;;;;;1.00;1.00;;;;;12.21;71.11;100384.81;5059314;28;45629;-44
2021/05/24 06:34:56;;;;;;;;;2.00;2.00;;;;;12.17;70.96;100386.66;5042525;28;48477;-42
2021/05/24 06:37:21;;;;;;;;;1.75;1.00;;;;;12.12;71.31;100387.69;5060774;28;45221;-44
2021/05/24 06:39:46;;;;;;;;;2.00;2.00;;;;;12.15;71.21;100393.75;5042457;28;45367;-44
2021/05/24 06:42:12;;;;;;;;;0.75;0.75;;;;;12.22;70.69;100394.44;5059206;28;45285;-41
2021/05/24 06:44:37;;;;;;;;;1.00;1.00;;;;;12.24;70.44;100390.00;5060640;28;46016;-47
2021/05/24 06:47:03;;;;;;;;;3.00;2.00;;;;;12.27;70.02;100389.06;5060621;28;45251;-42
2021/05/24 06:49:29;;;;;;;;;0.00;0.00;;;;;12.30;69.89;100394.22;5042461;28;45249;-45
2021/05/24 06:51:54;;;;;;;;;1.25;1.00;;;;;12.33;69.74;100384.47;5060504;28;45388;-46
2021/05/24 06:54:19;;;;;;;;;3.00;3.00;;;;;12.46;69.91;100397.31;5078085;27;46156;-43
2021/05/24 06:56:45;;;;;;;;;1.00;1.00;;;;;12.52;71.59;100408.53;5054997;28;45387;-42
2021/05/24 06:59:11;;;;;;;;;1.00;1.00;;;;;12.42;71.21;100393.06;5059146;28;45293;-42
2021/05/24 07:01:38;;;;;;;;;2.00;2.00;;;;;12.46;69.63;100403.44;5060455;28;45349;-42
2021/05/24 07:04:06;;;;;;;;;2.50;1.50;;;;;12.54;69.79;100405.00;5058322;28;46950;-47
2021/05/24 07:06:31;;;;;;;;;1.00;1.00;;;;;12.59;68.71;100396.09;5060358;28;45232;-43
2021/05/24 07:08:57;;;;;;;;;1.75;1.00;;;;;12.52;68.63;100391.88;5059938;28;45295;-42
2021/05/24 07:11:23;;;;;;;;;1.00;1.00;;;;;12.48;68.77;100390.25;5060409;28;45244;-43
2021/05/24 07:13:49;;;;;;;;;2.00;1.00;;;;;12.59;68.74;100396.09;5041653;28;46869;-43
2021/05/24 07:16:14;;;;;;;;;1.00;1.00;;;;;12.64;68.36;100393.28;5060122;28;45429;-43
2021/05/24 07:18:39;;;;;;;;;1.00;1.00;;;;;12.54;67.60;100384.81;5040058;28;45303;-43
2021/05/24 07:21:05;;;;;;;;;2.75;1.00;;;;;12.57;67.54;100400.53;5039905;28;45293;-42
2021/05/24 07:23:33;;;;;;;;;2.00;2.00;;;;;12.60;67.45;100410.13;5039501;28;46350;-43
2021/05/24 07:25:59;;;;;;;;;2.75;2.00;;;;;12.62;67.41;100398.63;5040162;28;45418;-40
2021/05/24 07:28:24;;;;;;;;;2.00;2.00;;;;;12.67;67.37;100412.53;5039666;28;45246;-43
2021/05/24 07:30:50;;;;;;;;;0.75;0.75;;;;;12.63;66.99;100410.03;5040041;28;45320;-42
2021/05/24 07:33:15;;;;;;;;;3.25;2.50;;;;;12.58;67.13;100404.91;5039603;28;46215;-42
2021/05/24 07:35:41;;;;;;;;;2.00;1.00;;;;;12.64;67.36;100420.53;5040160;28;45470;-42
2021/05/24 07:38:08;;;;;;;;;2.00;2.00;;;;;12.68;67.11;100409.00;5055293;28;45283;-43
2021/05/24 07:40:33;;;;;;;;;1.00;1.00;;;;;12.67;66.47;100407.25;5039542;28;45249;-42
2021/05/24 07:42:59;;;;;;;;;1.50;1.50;;;;;12.71;66.47;100412.47;5039321;28;46849;-42
2021/05/24 07:45:24;;;;;;;;;2.25;2.25;;;;;12.59;66.44;100411.03;5039823;28;45328;-43
2021/05/24 07:47:50;;;;;;;;;1.50;1.00;;;;;12.51;66.42;100419.16;5055203;28;45419;-45
2021/05/24 07:50:15;;;;;;;;;1.00;1.00;;;;;12.57;66.53;100411.06;5039579;28;45477;-44
2021/05/24 07:52:40;;;;;;;;;1.25;1.00;;;;;12.66;66.14;100410.78;5044940;28;45317;-43
2021/05/24 07:55:06;;;;;;;;;3.00;2.00;;;;;12.80;65.91;100428.00;5039131;28;45339;-43
2021/05/24 07:57:33;;;;;;;;;4.25;2.50;;;;;12.88;65.89;100444.50;5039467;28;45365;-44
2021/05/24 07:59:58;;;;;;;;;1.75;1.75;;;;;13.01;65.54;100442.34;5039380;28;45319;-44
2021/05/24 08:02:24;;;;;;;;;3.50;2.75;;;;;13.18;64.54;100447.13;5039216;28;45818;-44
2021/05/24 08:04:51;;;;;;;;;2.25;2.25;;;;;13.20;63.83;100418.94;5039419;28;45339;-43
2021/05/24 08:07:18;;;;;;;;;2.00;2.00;;;;;13.37;63.49;100436.03;5054995;28;45353;-43
2021/05/24 08:09:44;;;;;;;;;2.00;1.00;;;;;13.44;63.62;100427.91;5039141;28;45770;-45
2021/05/24 08:12:12;;;;;;;;;1.00;1.00;;;;;13.42;62.97;100429.75;5054366;28;45315;-43
2021/05/24 08:14:37;;;;;;;;;0.00;0.00;;;;;13.53;61.94;100439.94;5039406;28;45336;-42
2021/05/24 08:17:02;;;;;;;;;0.50;0.50;;;;;13.59;62.61;100437.13;5054696;28;45291;-43
2021/05/24 08:19:28;;;;;;;;;3.25;2.25;;;;;13.68;62.06;100441.25;5065038;28;45434;-43
2021/05/24 08:21:53;;;;;;;;;1.75;1.00;;;;;13.69;62.05;100437.69;5064705;28;46085;-42
2021/05/24 08:24:19;;;;;;;;;2.25;2.00;;;;;13.76;62.08;100430.44;5082988;28;45510;-43
2021/05/24 08:26:46;;;;;;;;;2.25;2.25;;;;;13.73;61.56;100441.94;5082958;28;45311;-43
2021/05/24 08:29:12;;;;;;;;;1.75;1.75;;;;;13.71;61.76;100424.44;5082940;28;45517;-43
2021/05/24 08:31:40;;;;;;;;;0.00;0.00;;;;;13.82;61.88;100439.03;5082674;28;46259;-42
2021/05/24 08:34:05;;;;;;;;;2.00;2.00;;;;;13.94;61.46;100431.63;5064755;28;45808;-42
2021/05/24 08:36:30;;;;;;;;;1.00;1.00;;;;;13.94;61.21;100432.47;5082841;28;45268;-42
2021/05/24 08:38:57;;;;;;;;;0.50;0.50;;;;;13.93;61.19;100438.66;5082783;28;45302;-44
2021/05/24 08:41:22;;;;;;;;;1.00;1.00;;;;;13.89;61.15;100431.75;5082754;28;45412;-44
2021/05/24 08:43:48;;;;;;;;;2.25;2.25;;;;;14.11;60.96;100417.84;5082459;28;45299;-42
2021/05/24 08:46:13;;;;;;;;;2.75;0.75;;;;;14.31;60.64;100422.44;5047816;28;45328;-45
2021/05/24 08:48:40;;;;;;;;;3.00;1.75;;;;;14.33;60.59;100423.25;5082760;28;45332;-44
2021/05/24 08:51:06;;;;;;;;;1.25;1.25;;;;;14.33;60.78;100423.25;5082493;28;45320;-43
2021/05/24 08:53:32;;;;;;;;;1.00;1.00;;;;;14.53;60.47;100430.47;5080959;28;45422;-48
2021/05/24 08:55:58;;;;;;;;;1.00;1.00;;;;;14.63;59.88;100417.81;5081719;27;45250;-44
2021/05/24 08:58:24;;;;;;;;;1.50;1.50;;;;;14.61;59.76;100423.13;5043955;28;45312;-43
2021/05/24 09:00:50;;;;;;;;;2.00;2.00;;;;;14.52;59.31;100428.75;5044174;28;45438;-47
2021/05/24 09:03:22;;;;;;;;;2.00;2.00;;;;;14.68;59.35;100422.94;5062016;28;45437;-43
2021/05/24 09:05:49;;;;;;;;;1.50;1.50;;;;;14.89;58.90;100413.34;5062102;28;45279;-42
2021/05/24 09:08:15;;;;;;;;;3.50;2.00;;;;;14.98;58.26;100420.09;5043572;28;45302;-43
2021/05/24 09:10:46;;;;;;;;;2.00;2.00;;;;;15.20;57.83;100425.44;5061747;28;46090;-44
2021/05/24 09:13:19;;;;;;;;;1.00;1.00;;;;;15.26;57.68;100417.25;5062035;28;45236;-46
2021/05/24 09:15:46;;;;;;;;;3.25;2.25;;;;;15.44;57.41;100420.97;5061901;28;45307;-42
2021/05/24 09:18:13;;;;;;;;;2.25;1.75;;;;;15.55;56.32;100400.22;5061716;28;45223;-42
2021/05/24 09:20:41;;;;;;;;;3.00;1.75;;;;;15.60;56.02;100405.31;5061659;28;45589;-42
2021/05/24 09:23:31;;;;;;;;;2.00;2.00;;;;;15.51;55.20;100406.56;5059890;28;45380;-43
2021/05/24 09:26:12;;;;;;;;;2.00;2.00;;;;;15.45;55.33;100404.16;5061958;28;45277;-45
2021/05/24 09:28:42;;;;;;;;;2.00;2.00;;;;;15.45;55.51;100412.09;5059585;28;45320;-42
2021/05/24 09:31:14;;;;;;;;;1.00;1.00;;;;;15.50;54.52;100415.41;5061500;28;45548;-44
2021/05/24 09:33:53;;;;;;;;;2.00;1.00;;;;;15.59;55.03;100401.78;5061508;28;45310;-46
2021/05/24 09:36:19;;;;;;;;;2.50;2.50;;;;;15.72;55.00;100401.31;5043382;28;45362;-44
2021/05/24 09:38:46;;;;;;;;;0.00;0.00;;;;;15.59;55.18;100401.78;5061290;28;45486;-43
2021/05/24 09:41:14;;;;;;;;;2.00;2.00;;;;;15.43;55.26;100404.22;5061308;28;45359;-43
2021/05/24 09:43:42;;;;;;;;;1.50;1.00;;;;;15.43;55.08;100413.94;5061208;28;45239;-44
2021/05/24 09:46:10;;;;;;;;;1.75;1.75;;;;;15.51;55.18;100390.66;5061524;28;45296;-42
2021/05/24 09:48:35;;;;;;;;;2.25;1.25;;;;;15.80;54.52;100396.56;5061063;28;45324;-42
2021/05/24 09:51:07;;;;;;;;;2.25;2.00;;;;;16.18;54.52;100393.25;5059585;28;47326;-43
2021/05/24 09:53:35;;;;;;;;;2.00;2.00;;;;;16.48;53.25;100385.75;5071510;28;45395;-43
2021/05/24 09:56:09;;;;;;;;;2.50;1.00;;;;;16.72;52.34;100393.53;5079543;27;45364;-44
2021/05/24 09:58:35;;;;;;;;;2.00;2.00;;;;;16.83;52.75;100395.69;5059715;28;45454;-49
2021/05/24 10:01:18;;;;;;;;;2.00;2.00;;;;;16.95;51.93;100378.38;5042802;28;47729;-44
2021/05/24 10:03:46;;;;;;;;;4.00;2.75;;;;;16.85;51.96;100378.75;5061095;28;45347;-44
2021/05/24 10:06:13;;;;;;;;;1.25;1.25;;;;;17.05;52.55;100364.59;5060778;28;45280;-44
2021/05/24 10:08:42;;;;;;;;;2.00;2.00;;;;;17.20;52.02;100367.47;5060420;28;45445;-44
2021/05/24 10:11:08;;;;;;;;;3.75;3.00;;;;;16.90;51.38;100376.78;5060816;28;46202;-45
2021/05/24 10:13:34;;;;;;;;;3.75;2.00;;;;;16.63;51.18;100373.59;5042843;28;45567;-44
2021/05/24 10:16:04;;;;;;;;;2.00;2.00;;;;;16.71;52.19;100379.38;5060186;27;45538;-45
2021/05/24 10:20:40;;;;;;;;;2.25;0.75;;;;;16.58;52.11;100357.03;5113047;27;45634;-47
2021/05/24 10:23:06;;;;;;;;;2.75;2.00;;;;;16.46;51.89;100368.19;5089966;27;45488;-45
2021/05/24 10:25:34;;;;;;;;;4.50;2.25;;;;;16.24;51.39;100372.63;5082309;27;45343;-47
2021/05/24 10:28:01;;;;;;;;;2.00;2.00;;;;;16.15;52.11;100343.88;5084495;27;45226;-48
2021/05/24 10:30:28;;;;;;;;;1.50;1.50;;;;;16.18;52.56;100366.75;5077281;27;45385;-46
2021/05/24 10:32:53;;;;;;;;;2.75;2.00;;;;;16.15;52.34;100357.13;5077386;27;45729;-45
2021/05/24 10:35:38;;;;;;;;;5.00;2.75;;;;;16.01;53.42;100348.91;5089975;27;45324;-44
2021/05/24 10:38:33;;;;;;;;;3.00;3.00;;;;;16.27;52.93;100349.56;5081428;27;45386;-45
2021/05/24 10:41:01;;;;;;;;;5.25;2.75;;;;;16.07;52.01;100327.44;5086476;27;45432;-44
2021/05/24 10:43:48;;;;;;;;;4.00;3.75;;;;;15.91;52.16;100337.84;5093511;27;45445;-45
2021/05/24 10:46:25;;;;;;;;;2.50;2.00;;;;;15.88;52.57;100344.13;5076959;27;45253;-45
2021/05/24 10:48:55;;;;;;;;;1.50;1.25;;;;;16.09;51.64;100337.06;5089727;27;45488;-44
2021/05/24 10:51:21;;;;;;;;;4.50;2.00;;;;;16.13;51.85;100340.44;5076914;27;45375;-47
2021/05/24 10:53:49;;;;;;;;;3.75;3.50;;;;;16.28;51.54;100311.53;5087303;27;45307;-46
2021/05/24 10:56:24;;;;;;;;;5.00;4.00;;;;;16.18;51.17;100332.28;5089114;27;45506;-45
2021/05/24 10:58:49;;;;;;;;;5.75;5.75;;;;;15.88;51.22;100346.78;5096465;27;45253;-47
2021/05/24 11:01:14;;;;;;;;;4.75;2.75;;;;;15.64;53.86;100345.16;5096270;27;46026;-46
2021/05/24 11:04:09;;;;;;;;;5.50;3.50;;;;;15.04;72.17;100343.13;5095018;27;45194;-45
2021/05/24 11:06:35;;;;;;;;;6.50;6.00;;;;;14.54;86.93;100347.59;5085526;27;45285;-48
2021/05/24 11:09:03;;;;;;;;;5.25;5.25;;;;;14.14;88.17;100349.03;5096266;27;45168;-49
2021/05/24 11:11:30;;;;;;;;;3.00;3.00;;;;;13.98;76.45;100354.84;5096366;27;45356;-49
2021/05/24 11:14:05;;;;;;;;;2.25;2.00;;;;;13.72;78.50;100363.69;5093654;27;45462;-49
2021/05/24 11:16:33;;;;;;;;;2.75;2.75;;;;;13.43;77.11;100344.38;5085758;27;45960;-46
2021/05/24 11:19:10;;;;;;;;;4.50;3.00;;;;;13.38;80.89;100374.44;5094545;27;45242;-50
2021/05/24 11:21:37;;;;;;;;;3.00;3.00;;;;;13.22;85.52;100367.00;5096017;27;45402;-48
2021/05/24 11:24:21;;;;;;;;;3.25;3.00;;;;;13.52;82.70;100348.50;5087571;27;45412;-47
2021/05/24 11:26:47;;;;;;;;;6.25;5.00;;;;;13.95;80.74;100341.75;5088308;27;45365;-47